Latest Coastal Weather Observations for Cato Island

IDQ60701

Issued at 1:13 pm EST Tuesday 30 November 2021 (issued every 10 minutes, with the page automatically refreshed every 10 minutes)

About coastal observations | Map of coastal stations | Coastal observations for QLD | Marine services | Other Formats
Station Details ID: 200601 Name: CATO ISLAND Lat: -23.25 Lon: 155.54 Height: 6.3 m
Data from the previous 72 hours. | See also: Recent months for locations in Queensland
Date/Time
EST
Wind Sea
Height
m
Swell Vis
km
Cloud Weather Temp
°C
Press
MSL
hPa
Rain since
9am
mm
Dir  Spd
kts
Gust
kts
Height
m
Period
s
Dir
30/01:00pm ENE 16 18 - - - - - - - 27.7 1010.5 -
30/12:30pm E 15 18 - - - - - - - 27.4 1010.8 -
30/12:00pm ENE 17 20 - - - - - - - 27.6 1011.1 -
30/11:30am E 17 19 - - - - - - - 27.5 1011.6 -
30/11:00am E 16 19 - - - - - - - 27.5 1012.1 -
30/10:30am E 16 18 - - - - - - - 27.5 1012.4 -
30/10:00am E 17 19 - - - - - - - 27.1 1012.4 -
30/09:30am E 18 20 - - - - - - - 27.2 1012.6 -
30/09:00am E 18 21 - - - - - - - 27.1 1012.6 -
30/08:30am E 18 21 - - - - - - - 26.9 1012.9 -
30/08:00am E 18 22 - - - - - - - 26.6 1013.0 -
30/07:30am E 18 21 - - - - - - - 26.6 1012.8 -
30/07:00am E 17 20 - - - - - - - 26.3 1012.8 -
30/06:30am E 18 20 - - - - - - - 26.2 1012.7 -
30/06:00am E 19 21 - - - - - - - 26.3 1012.5 -
30/05:30am E 16 19 - - - - - - - 25.8 1012.2 -
30/05:00am ENE 18 20 - - - - - - - 25.7 1011.8 -
30/04:30am E 19 22 - - - - - - - 25.8 1011.7 -
30/04:00am E 19 22 - - - - - - - 25.7 1011.6 -
30/03:30am E 19 22 - - - - - - - 25.7 1011.6 -
30/03:00am E 17 20 - - - - - - - 25.8 1011.7 -
30/02:30am E 16 18 - - - - - - - 25.7 1011.9 -
30/02:00am E 18 21 - - - - - - - 25.6 1011.9 -
30/01:30am E 19 22 - - - - - - - 25.8 1012.0 -
30/01:00am E 19 22 - - - - - - - 25.7 1012.2 -
30/12:30am E 20 22 - - - - - - - 25.8 1012.4 -
30/12:00am E 20 25 - - - - - - - 25.9 1012.8 -
 
Date/Time
EST
Wind Sea
Height
m
Swell Vis
km
Cloud Weather Temp
°C
Press
MSL
hPa
Rain since
9am
mm
Dir  Spd
kts
Gust
kts
Height
m
Period
s
Dir
29/11:30pm E 20 22 - - - - - - - 25.8 1013.3 -
29/11:00pm E 20 23 - - - - - - - 25.9 1013.5 -
29/10:30pm E 19 23 - - - - - - - 25.9 1013.7 -
29/10:00pm E 19 22 - - - - - - - 25.9 1013.8 -
29/09:30pm ESE 20 22 - - - - - - - 26.0 1013.8 -
29/09:00pm E 20 23 - - - - - - - 26.1 1013.6 -
29/08:30pm E 18 20 - - - - - - - 26.1 1013.6 -
29/08:00pm E 18 20 - - - - - - - 26.2 1013.4 -
29/07:30pm ESE 18 20 - - - - - - - 26.3 1013.5 -
29/07:00pm E 18 20 - - - - - - - 26.3 1013.3 -
29/06:30pm E 15 17 - - - - - - - 26.4 1013.3 -
29/06:00pm E 16 19 - - - - - - - 26.4 1013.1 -
29/05:30pm E 16 18 - - - - - - - 26.5 1012.8 -
29/05:00pm E 15 17 - - - - - - - 26.8 1012.5 -
29/04:30pm E 14 17 - - - - - - - 26.8 1012.3 -
29/04:00pm E 14 17 - - - - - - - 26.7 1012.1 -
29/03:30pm ESE 15 17 - - - - - - - 27.0 1011.9 -
29/03:00pm ESE 13 15 - - - - - - - 27.1 1012.1 -
29/02:30pm E 15 17 - - - - - - - 27.1 1012.2 -
29/02:00pm ESE 15 18 - - - - - - - 27.0 1012.3 -
29/01:30pm ESE 14 16 - - - - - - - 27.2 1012.4 -
29/01:00pm ESE 13 15 - - - - - - - 27.2 1012.7 -
29/12:30pm ESE 12 14 - - - - - - - 27.4 1013.3 -
29/12:00pm E 13 14 - - - - - - - 27.4 1013.6 -
29/11:30am E 11 13 - - - - - - - 27.4 1013.7 -
29/11:00am E 12 13 - - - - - - - 27.6 1014.0 -
29/10:30am E 13 14 - - - - - - - 27.5 1014.0 -
29/10:00am E 13 15 - - - - - - - 27.5 1013.9 -
29/09:30am E 12 14 - - - - - - - 27.4 1014.1 -
29/09:00am E 11 12 - - - - - - - 27.3 1014.2 -
29/08:30am E 12 14 - - - - - - - 27.2 1014.2 -
29/08:00am E 12 14 - - - - - - - 27.0 1014.2 -
29/07:30am E 13 14 - - - - - - - 26.7 1014.1 -
29/07:00am E 13 15 - - - - - - - 26.8 1013.9 -
29/06:30am E 15 17 - - - - - - - 26.3 1013.7 -
29/06:00am E 14 15 - - - - - - - 26.1 1013.6 -
29/05:30am E 14 15 - - - - - - - 26.1 1013.6 -
29/05:00am E 13 14 - - - - - - - 26.0 1013.3 -
29/04:30am E 14 16 - - - - - - - 25.8 1013.1 -
29/04:00am ENE 14 16 - - - - - - - 25.9 1012.9 -
29/03:30am E 13 15 - - - - - - - 25.8 1012.9 -
29/03:00am ENE 14 17 - - - - - - - 25.9 1012.7 -
29/02:30am ENE 15 17 - - - - - - - 25.9 1012.6 -
29/02:00am ENE 14 16 - - - - - - - 25.9 1012.7 -
29/01:30am ENE 13 15 - - - - - - - 25.8 1012.9 -
29/01:00am ENE 13 16 - - - - - - - 25.8 1013.2 -
29/12:30am ENE 14 16 - - - - - - - 25.9 1013.3 -
29/12:00am ENE 13 15 - - - - - - - 25.9 1013.6 -
 
Date/Time
EST
Wind Sea
Height
m
Swell Vis
km
Cloud Weather Temp
°C
Press
MSL
hPa
Rain since
9am
mm
Dir  Spd
kts
Gust
kts
Height
m
Period
s
Dir
28/11:30pm E 14 16 - - - - - - - 26.0 1013.8 -
28/11:00pm ENE 14 16 - - - - - - - 26.0 1014.2 -
28/10:30pm ENE 12 14 - - - - - - - 26.0 1014.2 -
28/10:00pm ENE 13 15 - - - - - - - 26.1 1014.5 -
28/09:30pm E 12 14 - - - - - - - 26.0 1014.6 -
28/09:00pm E 11 12 - - - - - - - 26.1 1014.6 -
28/08:30pm E 11 12 - - - - - - - 26.0 1014.4 -
28/08:00pm E 9 10 - - - - - - - 26.1 1014.3 -
28/07:30pm E 9 11 - - - - - - - 26.1 1014.2 -
28/07:00pm E 7 8 - - - - - - - 26.1 1013.9 -
28/06:30pm E 7 7 - - - - - - - 26.3 1013.6 -
28/06:00pm E 7 8 - - - - - - - 26.4 1013.2 -
28/05:30pm E 7 8 - - - - - - - 26.7 1012.9 -
28/05:00pm ESE 5 6 - - - - - - - 26.6 1012.7 -
28/04:30pm ESE 6 8 - - - - - - - 26.5 1012.4 -
28/04:00pm ESE 6 7 - - - - - - - 26.6 1012.3 -
28/03:30pm E 7 7 - - - - - - - 26.3 1012.4 -
28/03:00pm E 9 10 - - - - - - - 26.2 1012.5 -
28/02:30pm E 11 14 - - - - - - - 26.2 1012.7 -
28/02:00pm ESE 11 13 - - - - - - - 25.5 1012.9 -
28/01:30pm ENE 16 18 - - - - - - - 25.1 1013.0 -
28/01:00pm ENE 13 18 - - - - - - - 27.0 1013.3 -
28/12:30pm ENE 11 12 - - - - - - - 27.2 1013.3 -
28/12:00pm ENE 9 10 - - - - - - - 28.6 1013.4 -
28/11:30am ENE 9 10 - - - - - - - 28.3 1013.5 -
28/11:00am NE 9 10 - - - - - - - 28.5 1013.6 -
28/10:30am NE 10 11 - - - - - - - 29.1 1013.8 -
28/10:00am NE 9 11 - - - - - - - 28.2 1013.6 -
28/09:30am NE 10 11 - - - - - - - 28.1 1013.8 -
28/09:00am E 6 9 - - - - - - - 26.3 1013.8 -
28/08:30am NE 6 7 - - - - - - - 27.8 1013.7 -
28/08:00am ENE 9 9 - - - - - - - 27.9 1013.4 -
28/07:30am NE 9 11 - - - - - - - 27.1 1013.2 -
28/07:00am NE 11 13 - - - - - - - 27.1 1013.2 -
28/06:30am NE 12 13 - - - - - - - 26.5 1012.9 -
28/06:00am NNE 12 14 - - - - - - - 26.1 1012.8 -
28/05:30am NNE 10 12 - - - - - - - 25.9 1012.4 -
28/05:00am NE 11 13 - - - - - - - 25.7 1012.2 -
28/04:30am NE 12 14 - - - - - - - 25.8 1011.7 -
28/04:00am NE 7 15 - - - - - - - 25.7 1011.3 -
28/03:30am ENE 1 3 - - - - - - - 25.7 1011.4 -
28/03:00am CALM 0 2 - - - - - - - 25.6 1011.3 -
28/02:30am ENE 1 3 - - - - - - - 25.6 1011.3 -
28/02:00am CALM 0 3 - - - - - - - 25.5 1011.3 -
28/01:30am CALM 0 2 - - - - - - - 25.3 1011.4 -
28/01:00am NE 1 3 - - - - - - - 25.1 1011.4 -
28/12:30am ENE 1 3 - - - - - - - 25.0 1011.7 -
28/12:00am ENE 1 3 - - - - - - - 24.9 1011.7 -
 
Date/Time
EST
Wind Sea
Height
m
Swell Vis
km
Cloud Weather Temp
°C
Press
MSL
hPa
Rain since
9am
mm
Dir  Spd
kts
Gust
kts
Height
m
Period
s
Dir
27/11:30pm ENE 7 9 - - - - - - - 24.6 1011.9 -
27/11:00pm ESE 4 5 - - - - - - - 24.4 1012.5 -
27/10:30pm S 4 5 - - - - - - - 24.3 1013.1 -
27/10:00pm SSW 6 8 - - - - - - - 23.9 1013.5 -
27/09:30pm SSW 10 11 - - - - - - - 24.3 1013.5 -
27/09:00pm SW 12 15 - - - - - - - 24.3 1013.5 -
27/08:30pm SW 13 15 - - - - - - - 24.8 1013.4 -
27/08:00pm SW 12 14 - - - - - - - 24.5 1013.3 -
27/07:30pm SW 11 13 - - - - - - - 25.2 1013.1 -
27/07:00pm SW 13 15 - - - - - - - 24.9 1013.0 -
27/06:30pm SSW 15 16 - - - - - - - 24.9 1012.5 -
27/06:00pm SW 17 19 - - - - - - - 24.6 1012.5 -
27/05:30pm W 7 10 - - - - - - - 25.9 1012.1 -
27/05:00pm NW 6 7 - - - - - - - 26.1 1011.7 -
27/04:30pm NNW 6 7 - - - - - - - 26.1 1011.3 -
27/04:00pm NNW 8 9 - - - - - - - 26.1 1010.9 -
27/03:30pm NNW 7 8 - - - - - - - 26.3 1010.6 -
27/03:00pm NNW 10 11 - - - - - - - 26.4 1010.5 -
27/02:30pm NNW 12 14 - - - - - - - 26.6 1010.4 -
27/02:00pm NNW 12 13 - - - - - - - 26.7 1010.4 -
27/01:30pm NNW 12 14 - - - - - - - 26.5 1010.3 -

Other formats

Comma delimited format used in spreadsheet applications
http://www.bom.gov.au/fwo/IDQ60701/IDQ60701.94394.axf

JavaScript Object Notation format (JSON) in row-major order
http://www.bom.gov.au/fwo/IDQ60701/IDQ60701.94394.json

Data quality

Most of these data are generated automatically and are frequently updated. Quality checks on data are not normally performed. It is possible for incorrect values to appear. Refer to information at About Latest Weather Observations and please check the disclaimer before using these data.